sensor_id;sensor_type;location;lat;lon;timestamp;temperature;humidity
31677;DHT22;18385;51.572;6.578;2023-03-14T00:01:19;14.80;60.20
31677;DHT22;18385;51.572;6.578;2023-03-14T00:03:49;14.80;60.10
31677;DHT22;18385;51.572;6.578;2023-03-14T00:06:15;14.80;60.10
31677;DHT22;18385;51.572;6.578;2023-03-14T00:08:43;14.80;60.30
31677;DHT22;18385;51.572;6.578;2023-03-14T00:11:17;14.80;60.30
31677;DHT22;18385;51.572;6.578;2023-03-14T00:13:47;14.80;60.40
31677;DHT22;18385;51.572;6.578;2023-03-14T00:16:13;14.90;60.40
31677;DHT22;18385;51.572;6.578;2023-03-14T00:18:39;14.90;60.30
31677;DHT22;18385;51.572;6.578;2023-03-14T00:21:07;15.00;60.30
31677;DHT22;18385;51.572;6.578;2023-03-14T00:23:35;15.00;60.30
31677;DHT22;18385;51.572;6.578;2023-03-14T00:26:02;15.00;60.10
31677;DHT22;18385;51.572;6.578;2023-03-14T00:28:27;15.00;60.20
31677;DHT22;18385;51.572;6.578;2023-03-14T00:30:53;15.00;60.40
31677;DHT22;18385;51.572;6.578;2023-03-14T00:33:19;14.90;60.30
31677;DHT22;18385;51.572;6.578;2023-03-14T00:35:59;14.90;60.50
31677;DHT22;18385;51.572;6.578;2023-03-14T00:38:26;14.90;60.70
31677;DHT22;18385;51.572;6.578;2023-03-14T00:40:52;14.80;60.60
31677;DHT22;18385;51.572;6.578;2023-03-14T00:43:18;14.80;60.70
31677;DHT22;18385;51.572;6.578;2023-03-14T00:45:51;14.80;60.80
31677;DHT22;18385;51.572;6.578;2023-03-14T00:48:18;14.80;60.80
31677;DHT22;18385;51.572;6.578;2023-03-14T00:50:44;14.80;60.90
31677;DHT22;18385;51.572;6.578;2023-03-14T00:53:10;14.80;61.00
31677;DHT22;18385;51.572;6.578;2023-03-14T00:55:40;14.80;61.20
31677;DHT22;18385;51.572;6.578;2023-03-14T00:58:06;14.80;61.20
31677;DHT22;18385;51.572;6.578;2023-03-14T01:00:32;14.70;61.20
31677;DHT22;18385;51.572;6.578;2023-03-14T01:02:58;14.70;61.20
31677;DHT22;18385;51.572;6.578;2023-03-14T01:05:24;14.60;61.30
31677;DHT22;18385;51.572;6.578;2023-03-14T01:07:50;14.60;61.60
31677;DHT22;18385;51.572;6.578;2023-03-14T01:10:16;14.60;61.60
31677;DHT22;18385;51.572;6.578;2023-03-14T01:12:41;14.50;61.60
31677;DHT22;18385;51.572;6.578;2023-03-14T01:15:08;14.50;61.80
31677;DHT22;18385;51.572;6.578;2023-03-14T01:17:34;14.50;61.80
31677;DHT22;18385;51.572;6.578;2023-03-14T01:20:00;14.50;61.90
31677;DHT22;18385;51.572;6.578;2023-03-14T01:22:26;14.50;61.90
31677;DHT22;18385;51.572;6.578;2023-03-14T01:24:52;14.50;61.90
31677;DHT22;18385;51.572;6.578;2023-03-14T01:27:17;14.40;61.90
31677;DHT22;18385;51.572;6.578;2023-03-14T01:29:43;14.40;61.90
31677;DHT22;18385;51.572;6.578;2023-03-14T01:32:09;14.40;62.00
31677;DHT22;18385;51.572;6.578;2023-03-14T01:34:35;14.40;62.10
31677;DHT22;18385;51.572;6.578;2023-03-14T01:37:00;14.30;62.20
31677;DHT22;18385;51.572;6.578;2023-03-14T01:39:26;14.40;62.20
31677;DHT22;18385;51.572;6.578;2023-03-14T01:41:53;14.30;62.90
31677;DHT22;18385;51.572;6.578;2023-03-14T01:44:19;14.30;62.10
31677;DHT22;18385;51.572;6.578;2023-03-14T01:46:45;14.20;62.10
31677;DHT22;18385;51.572;6.578;2023-03-14T01:54:55;14.00;63.20
31677;DHT22;18385;51.572;6.578;2023-03-14T01:57:44;13.90;62.50
31677;DHT22;18385;51.572;6.578;2023-03-14T02:00:22;13.80;62.60
31677;DHT22;18385;51.572;6.578;2023-03-14T02:02:55;13.70;62.70
31677;DHT22;18385;51.572;6.578;2023-03-14T02:05:27;13.60;62.80
31677;DHT22;18385;51.572;6.578;2023-03-14T02:08:06;13.50;62.90
31677;DHT22;18385;51.572;6.578;2023-03-14T02:10:45;13.50;63.20
31677;DHT22;18385;51.572;6.578;2023-03-14T02:13:14;13.40;63.10
31677;DHT22;18385;51.572;6.578;2023-03-14T02:15:50;13.30;63.10
31677;DHT22;18385;51.572;6.578;2023-03-14T02:18:34;13.30;63.40
31677;DHT22;18385;51.572;6.578;2023-03-14T02:21:26;13.30;64.30
31677;DHT22;18385;51.572;6.578;2023-03-14T02:24:07;13.30;63.50
31677;DHT22;18385;51.572;6.578;2023-03-14T02:26:44;13.30;63.40
31677;DHT22;18385;51.572;6.578;2023-03-14T02:29:10;13.30;63.30
31677;DHT22;18385;51.572;6.578;2023-03-14T02:31:36;13.30;63.40
31677;DHT22;18385;51.572;6.578;2023-03-14T02:34:02;13.30;63.40
31677;DHT22;18385;51.572;6.578;2023-03-14T02:36:29;13.30;63.50
31677;DHT22;18385;51.572;6.578;2023-03-14T02:39:19;13.30;63.50
31677;DHT22;18385;51.572;6.578;2023-03-14T02:41:47;13.20;63.50
31677;DHT22;18385;51.572;6.578;2023-03-14T02:44:15;13.20;63.40
31677;DHT22;18385;51.572;6.578;2023-03-14T02:46:42;13.10;63.40
31677;DHT22;18385;51.572;6.578;2023-03-14T02:49:10;13.10;63.50
31677;DHT22;18385;51.572;6.578;2023-03-14T02:51:37;13.00;63.70
31677;DHT22;18385;51.572;6.578;2023-03-14T02:54:04;13.00;63.50
31677;DHT22;18385;51.572;6.578;2023-03-14T02:56:30;13.00;63.80
31677;DHT22;18385;51.572;6.578;2023-03-14T02:58:56;13.00;63.80
31677;DHT22;18385;51.572;6.578;2023-03-14T03:01:38;13.00;64.00
31677;DHT22;18385;51.572;6.578;2023-03-14T03:04:04;13.00;64.00
31677;DHT22;18385;51.572;6.578;2023-03-14T03:06:30;13.10;64.00
31677;DHT22;18385;51.572;6.578;2023-03-14T03:08:56;13.30;64.00
31677;DHT22;18385;51.572;6.578;2023-03-14T03:11:21;13.30;64.00
31677;DHT22;18385;51.572;6.578;2023-03-14T03:13:47;13.40;63.80
31677;DHT22;18385;51.572;6.578;2023-03-14T03:16:13;13.50;63.80
31677;DHT22;18385;51.572;6.578;2023-03-14T03:18:40;13.60;63.70
31677;DHT22;18385;51.572;6.578;2023-03-14T03:21:06;13.60;63.60
31677;DHT22;18385;51.572;6.578;2023-03-14T03:23:34;13.70;63.70
31677;DHT22;18385;51.572;6.578;2023-03-14T03:26:00;13.70;63.60
31677;DHT22;18385;51.572;6.578;2023-03-14T03:28:25;13.70;63.50
31677;DHT22;18385;51.572;6.578;2023-03-14T03:30:52;13.70;64.20
31677;DHT22;18385;51.572;6.578;2023-03-14T03:33:17;13.70;63.50
31677;DHT22;18385;51.572;6.578;2023-03-14T03:35:45;13.70;63.50
31677;DHT22;18385;51.572;6.578;2023-03-14T03:38:12;13.70;63.60
31677;DHT22;18385;51.572;6.578;2023-03-14T03:40:38;13.70;63.60
31677;DHT22;18385;51.572;6.578;2023-03-14T03:43:06;13.80;63.70
31677;DHT22;18385;51.572;6.578;2023-03-14T03:45:35;13.80;63.60
31677;DHT22;18385;51.572;6.578;2023-03-14T03:48:00;13.70;63.70
31677;DHT22;18385;51.572;6.578;2023-03-14T03:50:26;13.80;63.70
31677;DHT22;18385;51.572;6.578;2023-03-14T03:52:52;13.80;64.50
31677;DHT22;18385;51.572;6.578;2023-03-14T03:55:17;13.80;63.80
31677;DHT22;18385;51.572;6.578;2023-03-14T03:57:45;13.70;63.70
31677;DHT22;18385;51.572;6.578;2023-03-14T04:00:11;13.80;63.80
31677;DHT22;18385;51.572;6.578;2023-03-14T04:02:40;13.80;63.80
31677;DHT22;18385;51.572;6.578;2023-03-14T04:05:08;13.80;63.70
31677;DHT22;18385;51.572;6.578;2023-03-14T04:07:34;13.90;63.70
31677;DHT22;18385;51.572;6.578;2023-03-14T04:10:00;13.90;63.60
31677;DHT22;18385;51.572;6.578;2023-03-14T04:12:33;13.90;63.60
31677;DHT22;18385;51.572;6.578;2023-03-14T04:15:11;13.90;63.70
31677;DHT22;18385;51.572;6.578;2023-03-14T04:17:41;13.90;63.70
31677;DHT22;18385;51.572;6.578;2023-03-14T04:20:07;13.90;63.70
31677;DHT22;18385;51.572;6.578;2023-03-14T04:22:37;13.90;63.70
31677;DHT22;18385;51.572;6.578;2023-03-14T04:25:03;13.90;63.80
31677;DHT22;18385;51.572;6.578;2023-03-14T04:27:32;13.90;63.70
31677;DHT22;18385;51.572;6.578;2023-03-14T04:30:00;13.80;63.70
31677;DHT22;18385;51.572;6.578;2023-03-14T04:32:51;13.70;63.80
31677;DHT22;18385;51.572;6.578;2023-03-14T04:35:19;13.60;63.90
31677;DHT22;18385;51.572;6.578;2023-03-14T04:37:45;13.60;64.00
31677;DHT22;18385;51.572;6.578;2023-03-14T04:40:14;13.60;64.20
31677;DHT22;18385;51.572;6.578;2023-03-14T04:42:41;13.60;63.90
31677;DHT22;18385;51.572;6.578;2023-03-14T04:45:08;13.40;64.10
31677;DHT22;18385;51.572;6.578;2023-03-14T04:47:34;13.40;64.10
31677;DHT22;18385;51.572;6.578;2023-03-14T04:50:01;13.30;64.30
31677;DHT22;18385;51.572;6.578;2023-03-14T04:52:28;13.30;64.50
31677;DHT22;18385;51.572;6.578;2023-03-14T04:54:54;13.40;64.50
31677;DHT22;18385;51.572;6.578;2023-03-14T04:57:22;13.40;64.60
31677;DHT22;18385;51.572;6.578;2023-03-14T04:59:49;13.30;64.60
31677;DHT22;18385;51.572;6.578;2023-03-14T05:02:40;13.30;64.70
31677;DHT22;18385;51.572;6.578;2023-03-14T05:05:15;13.30;64.70
31677;DHT22;18385;51.572;6.578;2023-03-14T05:07:49;13.20;64.80
31677;DHT22;18385;51.572;6.578;2023-03-14T05:10:24;13.20;64.90
31677;DHT22;18385;51.572;6.578;2023-03-14T05:13:10;13.10;64.80
31677;DHT22;18385;51.572;6.578;2023-03-14T05:16:06;13.00;64.70
31677;DHT22;18385;51.572;6.578;2023-03-14T05:19:04;12.80;65.00
31677;DHT22;18385;51.572;6.578;2023-03-14T05:21:39;12.70;65.10
31677;DHT22;18385;51.572;6.578;2023-03-14T05:24:18;12.60;65.50
31677;DHT22;18385;51.572;6.578;2023-03-14T05:27:07;12.50;65.50
31677;DHT22;18385;51.572;6.578;2023-03-14T05:30:06;12.50;65.80
31677;DHT22;18385;51.572;6.578;2023-03-14T05:32:47;12.40;66.00
31677;DHT22;18385;51.572;6.578;2023-03-14T05:35:42;12.40;66.10
31677;DHT22;18385;51.572;6.578;2023-03-14T05:38:32;12.40;66.30
31677;DHT22;18385;51.572;6.578;2023-03-14T05:41:06;12.50;66.10
31677;DHT22;18385;51.572;6.578;2023-03-14T05:43:51;12.50;66.10
31677;DHT22;18385;51.572;6.578;2023-03-14T05:46:31;12.40;66.10
31677;DHT22;18385;51.572;6.578;2023-03-14T05:49:20;12.50;66.20
31677;DHT22;18385;51.572;6.578;2023-03-14T05:52:09;12.50;66.40
31677;DHT22;18385;51.572;6.578;2023-03-14T05:54:53;12.40;66.60
31677;DHT22;18385;51.572;6.578;2023-03-14T05:57:39;12.40;66.60
31677;DHT22;18385;51.572;6.578;2023-03-14T06:00:21;12.50;66.60
31677;DHT22;18385;51.572;6.578;2023-03-14T06:02:56;12.50;66.80
31677;DHT22;18385;51.572;6.578;2023-03-14T06:05:28;12.60;67.10
31677;DHT22;18385;51.572;6.578;2023-03-14T06:07:58;12.60;67.00
31677;DHT22;18385;51.572;6.578;2023-03-14T06:10:25;12.70;67.10
31677;DHT22;18385;51.572;6.578;2023-03-14T06:12:51;12.70;67.10
31677;DHT22;18385;51.572;6.578;2023-03-14T06:15:17;12.70;67.00
31677;DHT22;18385;51.572;6.578;2023-03-14T06:17:47;12.70;67.20
31677;DHT22;18385;51.572;6.578;2023-03-14T06:20:13;12.70;67.20
31677;DHT22;18385;51.572;6.578;2023-03-14T06:22:39;12.70;67.30
31677;DHT22;18385;51.572;6.578;2023-03-14T06:25:08;12.80;67.40
31677;DHT22;18385;51.572;6.578;2023-03-14T06:27:34;12.80;67.40
31677;DHT22;18385;51.572;6.578;2023-03-14T06:29:59;12.90;67.50
31677;DHT22;18385;51.572;6.578;2023-03-14T06:32:26;12.90;67.30
31677;DHT22;18385;51.572;6.578;2023-03-14T06:34:54;12.90;67.20
31677;DHT22;18385;51.572;6.578;2023-03-14T06:37:20;12.90;67.30
31677;DHT22;18385;51.572;6.578;2023-03-14T06:39:47;12.90;67.40
31677;DHT22;18385;51.572;6.578;2023-03-14T06:42:22;13.00;67.60
31677;DHT22;18385;51.572;6.578;2023-03-14T06:44:48;13.00;67.60
31677;DHT22;18385;51.572;6.578;2023-03-14T06:47:16;13.10;67.70
31677;DHT22;18385;51.572;6.578;2023-03-14T06:49:44;13.20;67.80
31677;DHT22;18385;51.572;6.578;2023-03-14T06:52:10;13.30;67.70
31677;DHT22;18385;51.572;6.578;2023-03-14T06:54:36;13.30;67.60
31677;DHT22;18385;51.572;6.578;2023-03-14T06:57:01;13.30;67.60
31677;DHT22;18385;51.572;6.578;2023-03-14T06:59:29;13.40;67.60
31677;DHT22;18385;51.572;6.578;2023-03-14T07:01:56;13.40;67.60
31677;DHT22;18385;51.572;6.578;2023-03-14T07:04:22;13.50;67.70
31677;DHT22;18385;51.572;6.578;2023-03-14T07:06:48;13.50;67.70
31677;DHT22;18385;51.572;6.578;2023-03-14T07:09:14;13.60;67.60
31677;DHT22;18385;51.572;6.578;2023-03-14T07:11:48;13.60;67.40
31677;DHT22;18385;51.572;6.578;2023-03-14T07:14:15;13.50;67.50
31677;DHT22;18385;51.572;6.578;2023-03-14T07:16:40;13.50;67.60
31677;DHT22;18385;51.572;6.578;2023-03-14T07:19:07;13.60;67.60
31677;DHT22;18385;51.572;6.578;2023-03-14T07:21:33;13.50;68.50
31677;DHT22;18385;51.572;6.578;2023-03-14T07:24:02;13.50;67.90
31677;DHT22;18385;51.572;6.578;2023-03-14T07:26:28;13.50;68.00
31677;DHT22;18385;51.572;6.578;2023-03-14T07:28:54;13.60;68.00
31677;DHT22;18385;51.572;6.578;2023-03-14T07:31:21;13.60;68.00
31677;DHT22;18385;51.572;6.578;2023-03-14T07:33:47;13.60;68.10
31677;DHT22;18385;51.572;6.578;2023-03-14T07:36:13;13.80;68.30
31677;DHT22;18385;51.572;6.578;2023-03-14T07:38:42;14.00;68.30
31677;DHT22;18385;51.572;6.578;2023-03-14T07:41:29;14.10;68.10
31677;DHT22;18385;51.572;6.578;2023-03-14T07:44:13;14.30;67.80
31677;DHT22;18385;51.572;6.578;2023-03-14T07:46:38;14.30;67.70
31677;DHT22;18385;51.572;6.578;2023-03-14T07:49:04;14.40;67.50
31677;DHT22;18385;51.572;6.578;2023-03-14T07:51:29;14.30;67.30
31677;DHT22;18385;51.572;6.578;2023-03-14T07:53:55;14.30;67.30
31677;DHT22;18385;51.572;6.578;2023-03-14T07:56:21;14.30;67.50
31677;DHT22;18385;51.572;6.578;2023-03-14T07:58:46;14.40;67.70
31677;DHT22;18385;51.572;6.578;2023-03-14T08:01:12;14.40;67.60
31677;DHT22;18385;51.572;6.578;2023-03-14T08:03:38;14.50;67.80
31677;DHT22;18385;51.572;6.578;2023-03-14T08:06:04;14.60;67.80
31677;DHT22;18385;51.572;6.578;2023-03-14T08:08:29;14.70;67.80
31677;DHT22;18385;51.572;6.578;2023-03-14T08:10:55;14.80;67.70
31677;DHT22;18385;51.572;6.578;2023-03-14T08:13:20;14.80;67.50
31677;DHT22;18385;51.572;6.578;2023-03-14T08:15:49;14.80;67.40
31677;DHT22;18385;51.572;6.578;2023-03-14T08:18:16;14.80;67.40
31677;DHT22;18385;51.572;6.578;2023-03-14T08:20:42;14.90;67.70
31677;DHT22;18385;51.572;6.578;2023-03-14T08:23:07;14.90;67.50
31677;DHT22;18385;51.572;6.578;2023-03-14T08:25:33;15.00;67.50
31677;DHT22;18385;51.572;6.578;2023-03-14T08:27:59;15.10;67.40
31677;DHT22;18385;51.572;6.578;2023-03-14T08:30:25;15.10;67.00
31677;DHT22;18385;51.572;6.578;2023-03-14T08:32:52;15.10;67.00
31677;DHT22;18385;51.572;6.578;2023-03-14T08:35:18;15.00;67.10
31677;DHT22;18385;51.572;6.578;2023-03-14T08:37:43;15.00;67.20
31677;DHT22;18385;51.572;6.578;2023-03-14T08:40:10;15.00;67.20
31677;DHT22;18385;51.572;6.578;2023-03-14T08:42:38;15.10;67.30
31677;DHT22;18385;51.572;6.578;2023-03-14T08:45:04;15.10;67.00
31677;DHT22;18385;51.572;6.578;2023-03-14T08:47:30;14.90;66.80
31677;DHT22;18385;51.572;6.578;2023-03-14T08:49:56;14.70;66.80
31677;DHT22;18385;51.572;6.578;2023-03-14T08:52:22;14.20;66.80
31677;DHT22;18385;51.572;6.578;2023-03-14T08:54:48;13.60;66.60
31677;DHT22;18385;51.572;6.578;2023-03-14T08:57:13;13.00;67.10
31677;DHT22;18385;51.572;6.578;2023-03-14T08:59:39;12.60;67.90
31677;DHT22;18385;51.572;6.578;2023-03-14T09:02:05;12.20;68.40
31677;DHT22;18385;51.572;6.578;2023-03-14T09:04:32;11.90;68.90
31677;DHT22;18385;51.572;6.578;2023-03-14T09:06:58;11.60;69.40
31677;DHT22;18385;51.572;6.578;2023-03-14T09:09:25;11.50;69.80
31677;DHT22;18385;51.572;6.578;2023-03-14T09:11:52;11.40;70.00
31677;DHT22;18385;51.572;6.578;2023-03-14T09:14:18;11.40;70.30
31677;DHT22;18385;51.572;6.578;2023-03-14T09:16:44;11.30;70.30
31677;DHT22;18385;51.572;6.578;2023-03-14T09:19:10;11.40;70.40
31677;DHT22;18385;51.572;6.578;2023-03-14T09:21:35;11.30;70.40
31677;DHT22;18385;51.572;6.578;2023-03-14T09:24:01;11.30;70.40
31677;DHT22;18385;51.572;6.578;2023-03-14T09:26:29;11.30;70.50
31677;DHT22;18385;51.572;6.578;2023-03-14T09:28:55;11.30;71.30
31677;DHT22;18385;51.572;6.578;2023-03-14T09:31:21;11.30;71.40
31677;DHT22;18385;51.572;6.578;2023-03-14T09:33:46;11.30;70.70
31677;DHT22;18385;51.572;6.578;2023-03-14T09:36:12;11.30;70.70
31677;DHT22;18385;51.572;6.578;2023-03-14T09:38:38;11.30;70.80
31677;DHT22;18385;51.572;6.578;2023-03-14T09:41:15;11.30;70.80
31677;DHT22;18385;51.572;6.578;2023-03-14T09:43:43;11.30;70.80
31677;DHT22;18385;51.572;6.578;2023-03-14T09:46:10;11.20;70.90
31677;DHT22;18385;51.572;6.578;2023-03-14T09:48:37;11.10;70.90
31677;DHT22;18385;51.572;6.578;2023-03-14T09:51:12;11.00;71.00
31677;DHT22;18385;51.572;6.578;2023-03-14T09:53:44;11.10;71.20
31677;DHT22;18385;51.572;6.578;2023-03-14T09:56:17;11.10;71.30
31677;DHT22;18385;51.572;6.578;2023-03-14T09:58:48;11.10;71.40
31677;DHT22;18385;51.572;6.578;2023-03-14T10:01:18;11.10;71.30
31677;DHT22;18385;51.572;6.578;2023-03-14T10:03:47;11.10;71.20
31677;DHT22;18385;51.572;6.578;2023-03-14T10:06:13;11.10;71.10
31677;DHT22;18385;51.572;6.578;2023-03-14T10:08:43;11.10;71.10
31677;DHT22;18385;51.572;6.578;2023-03-14T10:11:15;11.10;71.00
31677;DHT22;18385;51.572;6.578;2023-03-14T10:16:32;11.30;70.80
31677;DHT22;18385;51.572;6.578;2023-03-14T10:19:04;11.30;70.60
31677;DHT22;18385;51.572;6.578;2023-03-14T10:21:36;11.30;70.10
31677;DHT22;18385;51.572;6.578;2023-03-14T10:24:22;11.10;69.80
31677;DHT22;18385;51.572;6.578;2023-03-14T10:26:49;10.90;69.80
31677;DHT22;18385;51.572;6.578;2023-03-14T10:29:17;10.70;70.70
31677;DHT22;18385;51.572;6.578;2023-03-14T10:31:58;10.60;69.90
31677;DHT22;18385;51.572;6.578;2023-03-14T10:34:35;10.60;70.00
31677;DHT22;18385;51.572;6.578;2023-03-14T10:39:54;10.60;69.70
31677;DHT22;18385;51.572;6.578;2023-03-14T10:42:28;10.70;69.80
31677;DHT22;18385;51.572;6.578;2023-03-14T10:45:15;11.00;70.10
31677;DHT22;18385;51.572;6.578;2023-03-14T10:47:51;11.40;69.60
31677;DHT22;18385;51.572;6.578;2023-03-14T10:50:29;11.70;69.00
31677;DHT22;18385;51.572;6.578;2023-03-14T10:52:56;12.00;68.80
31677;DHT22;18385;51.572;6.578;2023-03-14T10:55:24;12.20;68.30
31677;DHT22;18385;51.572;6.578;2023-03-14T10:57:53;12.30;67.50
31677;DHT22;18385;51.572;6.578;2023-03-14T11:00:23;12.40;67.00
31677;DHT22;18385;51.572;6.578;2023-03-14T11:05:54;11.90;66.40
31677;DHT22;18385;51.572;6.578;2023-03-14T11:08:34;11.90;67.20
31677;DHT22;18385;51.572;6.578;2023-03-14T11:11:19;11.90;67.20
31677;DHT22;18385;51.572;6.578;2023-03-14T11:22:21;11.70;67.10
31677;DHT22;18385;51.572;6.578;2023-03-14T11:25:16;11.60;67.00
31677;DHT22;18385;51.572;6.578;2023-03-14T11:33:27;11.80;67.20
31677;DHT22;18385;51.572;6.578;2023-03-14T11:38:49;12.50;66.70
31677;DHT22;18385;51.572;6.578;2023-03-14T11:41:25;12.80;65.60
31677;DHT22;18385;51.572;6.578;2023-03-14T11:43:57;12.80;65.00
31677;DHT22;18385;51.572;6.578;2023-03-14T11:46:29;12.80;65.00
31677;DHT22;18385;51.572;6.578;2023-03-14T11:49:11;13.00;65.10
31677;DHT22;18385;51.572;6.578;2023-03-14T11:51:42;13.40;65.20
31677;DHT22;18385;51.572;6.578;2023-03-14T11:54:33;13.60;64.20
31677;DHT22;18385;51.572;6.578;2023-03-14T11:57:03;13.50;62.80
31677;DHT22;18385;51.572;6.578;2023-03-14T12:08:55;12.10;62.20
31677;DHT22;18385;51.572;6.578;2023-03-14T12:11:45;11.70;63.30
31677;DHT22;18385;51.572;6.578;2023-03-14T12:14:34;11.70;63.90
31677;DHT22;18385;51.572;6.578;2023-03-14T12:17:21;11.90;64.20
31677;DHT22;18385;51.572;6.578;2023-03-14T12:20:16;12.00;63.50
31677;DHT22;18385;51.572;6.578;2023-03-14T12:23:04;12.00;63.40
31677;DHT22;18385;51.572;6.578;2023-03-14T12:25:32;11.80;62.90
31677;DHT22;18385;51.572;6.578;2023-03-14T12:28:18;11.80;63.40
31677;DHT22;18385;51.572;6.578;2023-03-14T12:30:44;12.00;63.30
31677;DHT22;18385;51.572;6.578;2023-03-14T12:35:52;12.40;63.30
31677;DHT22;18385;51.572;6.578;2023-03-14T12:43:48;12.80;61.80
31677;DHT22;18385;51.572;6.578;2023-03-14T12:46:27;12.60;60.90
31677;DHT22;18385;51.572;6.578;2023-03-14T12:59:36;10.10;64.00
31677;DHT22;18385;51.572;6.578;2023-03-14T13:04:33;10.20;65.00
31677;DHT22;18385;51.572;6.578;2023-03-14T13:07:01;10.50;64.90
31677;DHT22;18385;51.572;6.578;2023-03-14T13:11:55;10.90;64.60
31677;DHT22;18385;51.572;6.578;2023-03-14T13:14:22;11.20;64.30
31677;DHT22;18385;51.572;6.578;2023-03-14T13:16:49;11.30;63.90
31677;DHT22;18385;51.572;6.578;2023-03-14T13:19:21;11.60;64.00
31677;DHT22;18385;51.572;6.578;2023-03-14T13:21:50;11.90;64.00
31677;DHT22;18385;51.572;6.578;2023-03-14T13:26:47;12.70;63.90
31677;DHT22;18385;51.572;6.578;2023-03-14T13:29:17;13.20;63.30
31677;DHT22;18385;51.572;6.578;2023-03-14T13:31:46;13.40;62.30
31677;DHT22;18385;51.572;6.578;2023-03-14T13:34:11;13.70;61.20
31677;DHT22;18385;51.572;6.578;2023-03-14T13:36:37;13.80;60.50
31677;DHT22;18385;51.572;6.578;2023-03-14T13:39:06;13.70;60.00
31677;DHT22;18385;51.572;6.578;2023-03-14T13:41:35;13.70;59.80
31677;DHT22;18385;51.572;6.578;2023-03-14T13:44:07;13.90;60.00
31677;DHT22;18385;51.572;6.578;2023-03-14T13:46:34;14.30;59.50
31677;DHT22;18385;51.572;6.578;2023-03-14T13:49:05;14.30;58.70
31677;DHT22;18385;51.572;6.578;2023-03-14T13:51:32;14.20;57.60
31677;DHT22;18385;51.572;6.578;2023-03-14T13:54:00;14.20;57.40
31677;DHT22;18385;51.572;6.578;2023-03-14T13:56:29;13.90;57.30
31677;DHT22;18385;51.572;6.578;2023-03-14T13:58:55;13.60;57.50
31677;DHT22;18385;51.572;6.578;2023-03-14T14:01:27;14.00;58.40
31677;DHT22;18385;51.572;6.578;2023-03-14T14:03:57;14.50;58.00
31677;DHT22;18385;51.572;6.578;2023-03-14T14:06:33;14.60;57.20
31677;DHT22;18385;51.572;6.578;2023-03-14T14:09:12;14.90;56.90
31677;DHT22;18385;51.572;6.578;2023-03-14T14:17:13;15.70;55.30
31677;DHT22;18385;51.572;6.578;2023-03-14T14:19:41;15.90;54.80
31677;DHT22;18385;51.572;6.578;2023-03-14T14:22:09;16.30;54.80
31677;DHT22;18385;51.572;6.578;2023-03-14T14:24:36;16.70;54.30
31677;DHT22;18385;51.572;6.578;2023-03-14T14:27:12;16.90;53.20
31677;DHT22;18385;51.572;6.578;2023-03-14T14:29:38;17.20;52.30
31677;DHT22;18385;51.572;6.578;2023-03-14T14:37:22;17.30;51.50
31677;DHT22;18385;51.572;6.578;2023-03-14T14:39:50;17.50;51.00
31677;DHT22;18385;51.572;6.578;2023-03-14T14:42:18;17.90;50.70
31677;DHT22;18385;51.572;6.578;2023-03-14T14:44:47;18.20;50.10
31677;DHT22;18385;51.572;6.578;2023-03-14T14:47:18;18.40;49.50
31677;DHT22;18385;51.572;6.578;2023-03-14T14:49:44;18.30;48.30
31677;DHT22;18385;51.572;6.578;2023-03-14T14:52:17;18.30;47.40
31677;DHT22;18385;51.572;6.578;2023-03-14T14:54:51;18.20;47.10
31677;DHT22;18385;51.572;6.578;2023-03-14T14:57:32;17.60;46.50
31677;DHT22;18385;51.572;6.578;2023-03-14T15:00:08;16.60;46.40
31677;DHT22;18385;51.572;6.578;2023-03-14T15:02:40;15.60;46.30
31677;DHT22;18385;51.572;6.578;2023-03-14T15:05:25;14.80;47.10
31677;DHT22;18385;51.572;6.578;2023-03-14T15:07:51;14.40;47.60
31677;DHT22;18385;51.572;6.578;2023-03-14T15:10:19;14.10;47.90
31677;DHT22;18385;51.572;6.578;2023-03-14T15:12:45;14.00;47.80
31677;DHT22;18385;51.572;6.578;2023-03-14T15:15:13;14.40;48.50
31677;DHT22;18385;51.572;6.578;2023-03-14T15:17:39;14.70;47.50
31677;DHT22;18385;51.572;6.578;2023-03-14T15:20:09;14.60;47.30
31677;DHT22;18385;51.572;6.578;2023-03-14T15:22:35;14.40;46.90
31677;DHT22;18385;51.572;6.578;2023-03-14T15:25:00;14.30;47.60
31677;DHT22;18385;51.572;6.578;2023-03-14T15:27:28;14.20;47.20
31677;DHT22;18385;51.572;6.578;2023-03-14T15:29:55;14.50;47.20
31677;DHT22;18385;51.572;6.578;2023-03-14T15:32:21;14.40;46.70
31677;DHT22;18385;51.572;6.578;2023-03-14T15:34:46;14.20;46.50
31677;DHT22;18385;51.572;6.578;2023-03-14T15:37:13;13.90;46.50
31677;DHT22;18385;51.572;6.578;2023-03-14T15:39:44;13.70;46.90
31677;DHT22;18385;51.572;6.578;2023-03-14T15:42:10;13.50;46.80
31677;DHT22;18385;51.572;6.578;2023-03-14T15:44:36;13.20;47.20
31677;DHT22;18385;51.572;6.578;2023-03-14T15:47:02;13.00;47.60
31677;DHT22;18385;51.572;6.578;2023-03-14T15:49:28;12.90;48.00
31677;DHT22;18385;51.572;6.578;2023-03-14T15:51:53;12.80;47.80
31677;DHT22;18385;51.572;6.578;2023-03-14T15:54:19;12.80;48.00
31677;DHT22;18385;51.572;6.578;2023-03-14T15:56:44;12.70;48.00
31677;DHT22;18385;51.572;6.578;2023-03-14T15:59:10;12.60;48.00
31677;DHT22;18385;51.572;6.578;2023-03-14T16:01:35;12.60;47.70
31677;DHT22;18385;51.572;6.578;2023-03-14T16:04:01;12.50;47.90
31677;DHT22;18385;51.572;6.578;2023-03-14T16:06:27;12.40;47.60
31677;DHT22;18385;51.572;6.578;2023-03-14T16:08:53;12.30;47.80
31677;DHT22;18385;51.572;6.578;2023-03-14T16:11:19;12.30;47.80
31677;DHT22;18385;51.572;6.578;2023-03-14T16:13:45;12.20;48.10
31677;DHT22;18385;51.572;6.578;2023-03-14T16:16:11;12.20;48.10
31677;DHT22;18385;51.572;6.578;2023-03-14T16:18:40;12.10;48.00
31677;DHT22;18385;51.572;6.578;2023-03-14T16:21:07;12.10;48.10
31677;DHT22;18385;51.572;6.578;2023-03-14T16:23:33;11.90;48.00
31677;DHT22;18385;51.572;6.578;2023-03-14T16:26:02;11.80;48.20
31677;DHT22;18385;51.572;6.578;2023-03-14T16:28:27;11.70;48.70
31677;DHT22;18385;51.572;6.578;2023-03-14T16:30:59;11.60;48.20
31677;DHT22;18385;51.572;6.578;2023-03-14T16:33:24;11.50;48.20
31677;DHT22;18385;51.572;6.578;2023-03-14T16:35:54;11.40;48.30
31677;DHT22;18385;51.572;6.578;2023-03-14T16:38:19;11.30;48.20
31677;DHT22;18385;51.572;6.578;2023-03-14T16:40:54;11.10;48.20
31677;DHT22;18385;51.572;6.578;2023-03-14T16:43:19;11.00;48.20
31677;DHT22;18385;51.572;6.578;2023-03-14T16:45:45;10.80;48.30
31677;DHT22;18385;51.572;6.578;2023-03-14T16:48:10;10.80;48.40
31677;DHT22;18385;51.572;6.578;2023-03-14T16:50:38;10.70;48.30
31677;DHT22;18385;51.572;6.578;2023-03-14T16:53:03;10.70;48.30
31677;DHT22;18385;51.572;6.578;2023-03-14T16:55:29;10.60;48.40
31677;DHT22;18385;51.572;6.578;2023-03-14T16:57:55;10.60;48.30
31677;DHT22;18385;51.572;6.578;2023-03-14T17:00:20;10.60;48.30
31677;DHT22;18385;51.572;6.578;2023-03-14T17:02:46;10.50;48.20
31677;DHT22;18385;51.572;6.578;2023-03-14T17:05:13;10.40;48.00